sensor_id;sensor_type;location;lat;lon;timestamp;temperature;humidity
53534;DHT22;39421;53.204;6.568;2022-07-24T00:01:10;18.60;99.90
53534;DHT22;39421;53.204;6.568;2022-07-24T00:03:36;18.70;99.90
53534;DHT22;39421;53.204;6.568;2022-07-24T00:06:02;18.70;99.90
53534;DHT22;39421;53.204;6.568;2022-07-24T00:08:29;18.60;99.90
53534;DHT22;39421;53.204;6.568;2022-07-24T00:10:54;18.60;99.90
53534;DHT22;39421;53.204;6.568;2022-07-24T00:13:20;18.50;99.90
53534;DHT22;39421;53.204;6.568;2022-07-24T00:15:47;18.40;99.90
53534;DHT22;39421;53.204;6.568;2022-07-24T00:18:13;18.50;99.90
53534;DHT22;39421;53.204;6.568;2022-07-24T00:20:39;18.40;99.90
53534;DHT22;39421;53.204;6.568;2022-07-24T00:23:05;18.50;99.90
53534;DHT22;39421;53.204;6.568;2022-07-24T00:25:32;18.60;99.90
53534;DHT22;39421;53.204;6.568;2022-07-24T00:27:59;18.60;99.90
53534;DHT22;39421;53.204;6.568;2022-07-24T00:30:25;18.50;99.90
53534;DHT22;39421;53.204;6.568;2022-07-24T00:32:52;18.40;99.90
53534;DHT22;39421;53.204;6.568;2022-07-24T00:35:19;18.40;99.90
53534;DHT22;39421;53.204;6.568;2022-07-24T00:37:44;18.30;99.90
53534;DHT22;39421;53.204;6.568;2022-07-24T00:40:12;18.30;99.90
53534;DHT22;39421;53.204;6.568;2022-07-24T00:42:39;18.30;99.90
53534;DHT22;39421;53.204;6.568;2022-07-24T00:45:09;18.20;99.90
53534;DHT22;39421;53.204;6.568;2022-07-24T00:47:36;18.20;99.90
53534;DHT22;39421;53.204;6.568;2022-07-24T00:50:10;18.20;99.90
53534;DHT22;39421;53.204;6.568;2022-07-24T00:52:37;18.20;99.90
53534;DHT22;39421;53.204;6.568;2022-07-24T00:55:04;18.10;99.90
53534;DHT22;39421;53.204;6.568;2022-07-24T00:57:30;18.10;99.90
53534;DHT22;39421;53.204;6.568;2022-07-24T00:59:57;18.10;99.90
53534;DHT22;39421;53.204;6.568;2022-07-24T01:02:23;18.10;99.90
53534;DHT22;39421;53.204;6.568;2022-07-24T01:04:50;18.10;99.90
53534;DHT22;39421;53.204;6.568;2022-07-24T01:07:16;18.10;99.90
53534;DHT22;39421;53.204;6.568;2022-07-24T01:09:43;18.10;99.90
53534;DHT22;39421;53.204;6.568;2022-07-24T01:12:09;18.10;99.90
53534;DHT22;39421;53.204;6.568;2022-07-24T01:14:36;18.10;99.90
53534;DHT22;39421;53.204;6.568;2022-07-24T01:17:03;18.20;99.90
53534;DHT22;39421;53.204;6.568;2022-07-24T01:19:30;18.20;99.90
53534;DHT22;39421;53.204;6.568;2022-07-24T01:21:56;18.10;99.90
53534;DHT22;39421;53.204;6.568;2022-07-24T01:24:23;18.20;99.90
53534;DHT22;39421;53.204;6.568;2022-07-24T01:26:48;18.10;99.90
53534;DHT22;39421;53.204;6.568;2022-07-24T01:29:15;18.10;99.90
53534;DHT22;39421;53.204;6.568;2022-07-24T01:31:45;18.00;99.90
53534;DHT22;39421;53.204;6.568;2022-07-24T01:34:12;18.00;99.90
53534;DHT22;39421;53.204;6.568;2022-07-24T01:36:38;18.00;99.90
53534;DHT22;39421;53.204;6.568;2022-07-24T01:39:04;18.00;99.90
53534;DHT22;39421;53.204;6.568;2022-07-24T01:41:38;18.00;99.90
53534;DHT22;39421;53.204;6.568;2022-07-24T01:44:08;18.00;99.90
53534;DHT22;39421;53.204;6.568;2022-07-24T01:46:40;18.00;99.90
53534;DHT22;39421;53.204;6.568;2022-07-24T01:49:09;18.00;99.90
53534;DHT22;39421;53.204;6.568;2022-07-24T01:51:38;17.90;99.90
53534;DHT22;39421;53.204;6.568;2022-07-24T01:54:04;18.00;99.90
53534;DHT22;39421;53.204;6.568;2022-07-24T01:56:31;18.00;99.90
53534;DHT22;39421;53.204;6.568;2022-07-24T01:58:58;17.90;99.90
53534;DHT22;39421;53.204;6.568;2022-07-24T02:01:26;17.90;99.90
53534;DHT22;39421;53.204;6.568;2022-07-24T02:03:52;17.90;99.90
53534;DHT22;39421;53.204;6.568;2022-07-24T02:06:21;17.80;99.90
53534;DHT22;39421;53.204;6.568;2022-07-24T02:08:54;17.80;99.90
53534;DHT22;39421;53.204;6.568;2022-07-24T02:11:20;17.80;99.90
53534;DHT22;39421;53.204;6.568;2022-07-24T02:13:46;17.80;99.90
53534;DHT22;39421;53.204;6.568;2022-07-24T02:16:21;17.80;99.90
53534;DHT22;39421;53.204;6.568;2022-07-24T02:18:47;17.90;99.90
53534;DHT22;39421;53.204;6.568;2022-07-24T02:21:15;17.80;99.90
53534;DHT22;39421;53.204;6.568;2022-07-24T02:23:44;17.80;99.90
53534;DHT22;39421;53.204;6.568;2022-07-24T02:26:10;17.80;99.90
53534;DHT22;39421;53.204;6.568;2022-07-24T02:28:36;17.80;99.90
53534;DHT22;39421;53.204;6.568;2022-07-24T02:31:03;17.70;99.90
53534;DHT22;39421;53.204;6.568;2022-07-24T02:33:29;17.60;99.90
53534;DHT22;39421;53.204;6.568;2022-07-24T02:35:55;17.60;99.90
53534;DHT22;39421;53.204;6.568;2022-07-24T02:38:21;17.60;99.90
53534;DHT22;39421;53.204;6.568;2022-07-24T02:40:47;17.60;99.90
53534;DHT22;39421;53.204;6.568;2022-07-24T02:43:13;17.60;99.90
53534;DHT22;39421;53.204;6.568;2022-07-24T02:45:39;17.60;99.90
53534;DHT22;39421;53.204;6.568;2022-07-24T02:48:08;17.60;99.90
53534;DHT22;39421;53.204;6.568;2022-07-24T02:50:35;17.50;99.90
53534;DHT22;39421;53.204;6.568;2022-07-24T02:53:13;17.60;99.90
53534;DHT22;39421;53.204;6.568;2022-07-24T02:55:39;17.60;99.90
53534;DHT22;39421;53.204;6.568;2022-07-24T02:58:06;17.60;99.90
53534;DHT22;39421;53.204;6.568;2022-07-24T03:00:33;17.50;99.90
53534;DHT22;39421;53.204;6.568;2022-07-24T03:02:59;17.50;99.90
53534;DHT22;39421;53.204;6.568;2022-07-24T03:05:24;17.50;99.90
53534;DHT22;39421;53.204;6.568;2022-07-24T03:07:51;17.50;99.90
53534;DHT22;39421;53.204;6.568;2022-07-24T03:10:18;17.60;99.90
53534;DHT22;39421;53.204;6.568;2022-07-24T03:12:49;17.60;99.90
53534;DHT22;39421;53.204;6.568;2022-07-24T03:15:19;17.50;99.90
53534;DHT22;39421;53.204;6.568;2022-07-24T03:17:53;17.50;99.90
53534;DHT22;39421;53.204;6.568;2022-07-24T03:20:22;17.50;99.90
53534;DHT22;39421;53.204;6.568;2022-07-24T03:22:55;17.50;99.90
53534;DHT22;39421;53.204;6.568;2022-07-24T03:25:22;17.40;99.90
53534;DHT22;39421;53.204;6.568;2022-07-24T03:27:49;17.30;99.90
53534;DHT22;39421;53.204;6.568;2022-07-24T03:30:16;17.40;99.90
53534;DHT22;39421;53.204;6.568;2022-07-24T03:32:42;17.40;99.90
53534;DHT22;39421;53.204;6.568;2022-07-24T03:35:08;17.40;99.90
53534;DHT22;39421;53.204;6.568;2022-07-24T03:37:34;17.40;99.90
53534;DHT22;39421;53.204;6.568;2022-07-24T03:40:00;17.40;99.90
53534;DHT22;39421;53.204;6.568;2022-07-24T03:42:27;17.40;99.90
53534;DHT22;39421;53.204;6.568;2022-07-24T03:44:54;17.40;99.90
53534;DHT22;39421;53.204;6.568;2022-07-24T03:47:20;17.40;99.90
53534;DHT22;39421;53.204;6.568;2022-07-24T03:49:46;17.30;99.90
53534;DHT22;39421;53.204;6.568;2022-07-24T03:52:12;17.30;99.90
53534;DHT22;39421;53.204;6.568;2022-07-24T03:54:40;17.40;99.90
53534;DHT22;39421;53.204;6.568;2022-07-24T03:57:05;17.30;99.90
53534;DHT22;39421;53.204;6.568;2022-07-24T03:59:32;17.30;99.90
53534;DHT22;39421;53.204;6.568;2022-07-24T04:02:01;17.30;99.90
53534;DHT22;39421;53.204;6.568;2022-07-24T04:04:27;17.30;99.90
53534;DHT22;39421;53.204;6.568;2022-07-24T04:06:52;17.30;99.90
53534;DHT22;39421;53.204;6.568;2022-07-24T04:09:20;17.30;99.90
53534;DHT22;39421;53.204;6.568;2022-07-24T04:11:47;17.30;99.90
53534;DHT22;39421;53.204;6.568;2022-07-24T04:14:13;17.30;99.90
53534;DHT22;39421;53.204;6.568;2022-07-24T04:16:40;17.30;99.90
53534;DHT22;39421;53.204;6.568;2022-07-24T04:19:05;17.30;99.90
53534;DHT22;39421;53.204;6.568;2022-07-24T04:21:31;17.30;99.90
53534;DHT22;39421;53.204;6.568;2022-07-24T04:23:57;17.30;99.90
53534;DHT22;39421;53.204;6.568;2022-07-24T04:26:23;17.30;99.90
53534;DHT22;39421;53.204;6.568;2022-07-24T04:28:50;17.40;99.90
53534;DHT22;39421;53.204;6.568;2022-07-24T04:31:17;17.40;99.90
53534;DHT22;39421;53.204;6.568;2022-07-24T04:33:42;17.40;99.90
53534;DHT22;39421;53.204;6.568;2022-07-24T04:36:10;17.40;99.90
53534;DHT22;39421;53.204;6.568;2022-07-24T04:38:36;17.40;99.90
53534;DHT22;39421;53.204;6.568;2022-07-24T04:41:02;17.40;99.90
53534;DHT22;39421;53.204;6.568;2022-07-24T04:43:32;17.40;99.90
53534;DHT22;39421;53.204;6.568;2022-07-24T04:45:59;17.40;99.90
53534;DHT22;39421;53.204;6.568;2022-07-24T04:48:25;17.50;99.90
53534;DHT22;39421;53.204;6.568;2022-07-24T04:50:52;17.50;99.90
53534;DHT22;39421;53.204;6.568;2022-07-24T04:53:18;17.50;99.90
53534;DHT22;39421;53.204;6.568;2022-07-24T04:55:45;17.60;99.90
53534;DHT22;39421;53.204;6.568;2022-07-24T04:58:17;17.60;99.90
53534;DHT22;39421;53.204;6.568;2022-07-24T05:00:43;17.60;99.90
53534;DHT22;39421;53.204;6.568;2022-07-24T05:03:10;17.70;99.90
53534;DHT22;39421;53.204;6.568;2022-07-24T05:05:35;17.70;99.90
53534;DHT22;39421;53.204;6.568;2022-07-24T05:08:01;17.80;99.90
53534;DHT22;39421;53.204;6.568;2022-07-24T05:10:31;17.80;99.90
53534;DHT22;39421;53.204;6.568;2022-07-24T05:12:58;17.90;99.90
53534;DHT22;39421;53.204;6.568;2022-07-24T05:15:23;18.00;99.90
53534;DHT22;39421;53.204;6.568;2022-07-24T05:17:49;18.10;99.90
53534;DHT22;39421;53.204;6.568;2022-07-24T05:20:15;18.20;99.90
53534;DHT22;39421;53.204;6.568;2022-07-24T05:22:41;18.20;99.90
53534;DHT22;39421;53.204;6.568;2022-07-24T05:25:07;18.30;99.90
53534;DHT22;39421;53.204;6.568;2022-07-24T05:27:33;18.20;99.90
53534;DHT22;39421;53.204;6.568;2022-07-24T05:29:59;18.30;99.90
53534;DHT22;39421;53.204;6.568;2022-07-24T05:32:25;18.30;99.90
53534;DHT22;39421;53.204;6.568;2022-07-24T05:34:57;18.30;99.90
53534;DHT22;39421;53.204;6.568;2022-07-24T05:37:23;18.40;99.90
53534;DHT22;39421;53.204;6.568;2022-07-24T05:39:53;18.50;99.90
53534;DHT22;39421;53.204;6.568;2022-07-24T05:42:20;18.50;99.90
53534;DHT22;39421;53.204;6.568;2022-07-24T05:44:50;18.50;99.90
53534;DHT22;39421;53.204;6.568;2022-07-24T05:47:16;18.60;99.90
53534;DHT22;39421;53.204;6.568;2022-07-24T05:49:42;18.60;99.90
53534;DHT22;39421;53.204;6.568;2022-07-24T05:52:08;18.60;99.90
53534;DHT22;39421;53.204;6.568;2022-07-24T05:54:34;18.70;99.90
53534;DHT22;39421;53.204;6.568;2022-07-24T05:57:00;18.80;99.90
53534;DHT22;39421;53.204;6.568;2022-07-24T05:59:35;18.90;99.90
53534;DHT22;39421;53.204;6.568;2022-07-24T06:02:10;19.10;99.90
53534;DHT22;39421;53.204;6.568;2022-07-24T06:04:41;19.20;99.90
53534;DHT22;39421;53.204;6.568;2022-07-24T06:07:09;19.30;99.90
53534;DHT22;39421;53.204;6.568;2022-07-24T06:09:36;19.40;99.90
53534;DHT22;39421;53.204;6.568;2022-07-24T06:12:04;19.70;99.90
53534;DHT22;39421;53.204;6.568;2022-07-24T06:14:30;19.80;99.90
53534;DHT22;39421;53.204;6.568;2022-07-24T06:16:57;19.90;99.90
53534;DHT22;39421;53.204;6.568;2022-07-24T06:19:24;20.10;99.90
53534;DHT22;39421;53.204;6.568;2022-07-24T06:21:53;20.10;99.90
53534;DHT22;39421;53.204;6.568;2022-07-24T06:24:19;20.20;99.90
53534;DHT22;39421;53.204;6.568;2022-07-24T06:26:48;20.30;99.90
53534;DHT22;39421;53.204;6.568;2022-07-24T06:29:16;20.40;99.90
53534;DHT22;39421;53.204;6.568;2022-07-24T06:31:41;20.40;99.90
53534;DHT22;39421;53.204;6.568;2022-07-24T06:34:08;20.40;99.90
53534;DHT22;39421;53.204;6.568;2022-07-24T06:36:34;20.50;99.90
53534;DHT22;39421;53.204;6.568;2022-07-24T06:39:03;20.60;99.90
53534;DHT22;39421;53.204;6.568;2022-07-24T06:41:28;20.70;99.90
53534;DHT22;39421;53.204;6.568;2022-07-24T06:44:01;20.70;99.90
53534;DHT22;39421;53.204;6.568;2022-07-24T06:46:27;20.70;99.90
53534;DHT22;39421;53.204;6.568;2022-07-24T06:48:53;20.80;99.90
53534;DHT22;39421;53.204;6.568;2022-07-24T06:51:18;20.80;99.90
53534;DHT22;39421;53.204;6.568;2022-07-24T06:53:44;20.70;99.90
53534;DHT22;39421;53.204;6.568;2022-07-24T06:56:14;20.80;99.90
53534;DHT22;39421;53.204;6.568;2022-07-24T06:58:41;20.90;99.90
53534;DHT22;39421;53.204;6.568;2022-07-24T07:01:08;21.00;99.90
53534;DHT22;39421;53.204;6.568;2022-07-24T07:03:35;21.10;99.90
53534;DHT22;39421;53.204;6.568;2022-07-24T07:06:04;21.30;99.90
53534;DHT22;39421;53.204;6.568;2022-07-24T07:08:35;21.40;99.90
53534;DHT22;39421;53.204;6.568;2022-07-24T07:11:01;21.40;99.90
53534;DHT22;39421;53.204;6.568;2022-07-24T07:13:33;21.50;99.90
53534;DHT22;39421;53.204;6.568;2022-07-24T07:16:00;21.50;99.90
53534;DHT22;39421;53.204;6.568;2022-07-24T07:18:26;21.60;99.90
53534;DHT22;39421;53.204;6.568;2022-07-24T07:20:55;21.70;99.90
53534;DHT22;39421;53.204;6.568;2022-07-24T07:23:24;21.70;99.90
53534;DHT22;39421;53.204;6.568;2022-07-24T07:25:52;21.80;99.90
53534;DHT22;39421;53.204;6.568;2022-07-24T07:28:19;21.90;99.90
53534;DHT22;39421;53.204;6.568;2022-07-24T07:30:44;21.90;99.90
53534;DHT22;39421;53.204;6.568;2022-07-24T07:33:13;22.00;99.90
53534;DHT22;39421;53.204;6.568;2022-07-24T07:35:39;22.10;99.90
53534;DHT22;39421;53.204;6.568;2022-07-24T07:38:05;22.30;99.90
53534;DHT22;39421;53.204;6.568;2022-07-24T07:40:30;22.40;99.90
53534;DHT22;39421;53.204;6.568;2022-07-24T07:42:56;22.60;99.90
53534;DHT22;39421;53.204;6.568;2022-07-24T07:45:21;22.80;99.90
53534;DHT22;39421;53.204;6.568;2022-07-24T07:47:47;23.00;99.90
53534;DHT22;39421;53.204;6.568;2022-07-24T07:50:13;23.00;99.90
53534;DHT22;39421;53.204;6.568;2022-07-24T07:52:39;23.00;99.90
53534;DHT22;39421;53.204;6.568;2022-07-24T07:55:05;23.00;99.90
53534;DHT22;39421;53.204;6.568;2022-07-24T07:57:31;23.00;99.90
53534;DHT22;39421;53.204;6.568;2022-07-24T07:59:57;23.00;99.90
53534;DHT22;39421;53.204;6.568;2022-07-24T08:02:22;22.90;99.90
53534;DHT22;39421;53.204;6.568;2022-07-24T08:04:48;23.00;99.90
53534;DHT22;39421;53.204;6.568;2022-07-24T08:07:14;22.90;99.90
53534;DHT22;39421;53.204;6.568;2022-07-24T08:09:41;22.90;99.90
53534;DHT22;39421;53.204;6.568;2022-07-24T08:12:07;23.00;99.90
53534;DHT22;39421;53.204;6.568;2022-07-24T08:14:32;23.10;99.90
53534;DHT22;39421;53.204;6.568;2022-07-24T08:16:58;23.20;99.90
53534;DHT22;39421;53.204;6.568;2022-07-24T08:19:24;23.30;99.90
53534;DHT22;39421;53.204;6.568;2022-07-24T08:21:49;23.60;99.90
53534;DHT22;39421;53.204;6.568;2022-07-24T08:24:16;23.90;99.90
53534;DHT22;39421;53.204;6.568;2022-07-24T08:26:49;24.20;99.90
53534;DHT22;39421;53.204;6.568;2022-07-24T08:29:16;24.30;99.90
53534;DHT22;39421;53.204;6.568;2022-07-24T08:31:42;24.20;99.90
53534;DHT22;39421;53.204;6.568;2022-07-24T08:34:09;24.20;99.90
53534;DHT22;39421;53.204;6.568;2022-07-24T08:36:35;24.30;99.90
53534;DHT22;39421;53.204;6.568;2022-07-24T08:39:00;24.40;99.90
53534;DHT22;39421;53.204;6.568;2022-07-24T08:41:30;24.40;99.90
53534;DHT22;39421;53.204;6.568;2022-07-24T08:43:59;24.40;99.90
53534;DHT22;39421;53.204;6.568;2022-07-24T08:46:25;24.20;99.90
53534;DHT22;39421;53.204;6.568;2022-07-24T08:48:53;24.10;99.90
53534;DHT22;39421;53.204;6.568;2022-07-24T08:51:19;23.90;99.90
53534;DHT22;39421;53.204;6.568;2022-07-24T08:53:48;23.90;99.90
53534;DHT22;39421;53.204;6.568;2022-07-24T08:56:16;24.00;99.90
53534;DHT22;39421;53.204;6.568;2022-07-24T08:58:42;24.10;99.90
53534;DHT22;39421;53.204;6.568;2022-07-24T09:01:08;24.30;99.90
53534;DHT22;39421;53.204;6.568;2022-07-24T09:03:42;24.30;99.90
53534;DHT22;39421;53.204;6.568;2022-07-24T09:06:09;24.30;99.90
53534;DHT22;39421;53.204;6.568;2022-07-24T09:08:36;24.30;99.90
53534;DHT22;39421;53.204;6.568;2022-07-24T09:11:03;24.40;99.90
53534;DHT22;39421;53.204;6.568;2022-07-24T09:13:31;24.60;99.90
53534;DHT22;39421;53.204;6.568;2022-07-24T09:16:23;24.70;99.90
53534;DHT22;39421;53.204;6.568;2022-07-24T09:19:06;24.80;99.90
53534;DHT22;39421;53.204;6.568;2022-07-24T09:21:38;24.60;99.90
53534;DHT22;39421;53.204;6.568;2022-07-24T09:24:18;24.60;99.90
53534;DHT22;39421;53.204;6.568;2022-07-24T09:26:48;24.70;99.90
53534;DHT22;39421;53.204;6.568;2022-07-24T09:29:17;24.80;99.90
53534;DHT22;39421;53.204;6.568;2022-07-24T09:31:57;24.80;99.90
53534;DHT22;39421;53.204;6.568;2022-07-24T09:34:25;25.10;99.90
53534;DHT22;39421;53.204;6.568;2022-07-24T09:37:12;25.20;99.90
53534;DHT22;39421;53.204;6.568;2022-07-24T09:39:38;25.30;99.90
53534;DHT22;39421;53.204;6.568;2022-07-24T09:42:05;25.40;99.90
53534;DHT22;39421;53.204;6.568;2022-07-24T09:44:33;25.60;99.90
53534;DHT22;39421;53.204;6.568;2022-07-24T09:49:48;25.70;99.90
53534;DHT22;39421;53.204;6.568;2022-07-24T09:52:16;25.90;99.90
53534;DHT22;39421;53.204;6.568;2022-07-24T09:54:43;26.00;99.90
53534;DHT22;39421;53.204;6.568;2022-07-24T09:57:29;26.20;99.90
53534;DHT22;39421;53.204;6.568;2022-07-24T09:59:57;26.10;99.90
53534;DHT22;39421;53.204;6.568;2022-07-24T10:02:25;26.20;99.90
53534;DHT22;39421;53.204;6.568;2022-07-24T10:04:52;26.20;99.90
53534;DHT22;39421;53.204;6.568;2022-07-24T10:07:20;26.30;99.90
53534;DHT22;39421;53.204;6.568;2022-07-24T10:09:51;26.20;99.90
53534;DHT22;39421;53.204;6.568;2022-07-24T10:12:21;26.20;99.90
53534;DHT22;39421;53.204;6.568;2022-07-24T10:14:49;26.10;99.90
53534;DHT22;39421;53.204;6.568;2022-07-24T10:17:18;25.90;99.90
53534;DHT22;39421;53.204;6.568;2022-07-24T10:19:46;25.80;99.80
53534;DHT22;39421;53.204;6.568;2022-07-24T10:22:15;25.70;99.60
53534;DHT22;39421;53.204;6.568;2022-07-24T10:27:34;26.10;99.10
53534;DHT22;39421;53.204;6.568;2022-07-24T10:30:05;26.20;99.10
53534;DHT22;39421;53.204;6.568;2022-07-24T10:32:33;26.20;99.10
53534;DHT22;39421;53.204;6.568;2022-07-24T10:35:19;26.20;99.30
53534;DHT22;39421;53.204;6.568;2022-07-24T10:53:31;27.10;98.70
53534;DHT22;39421;53.204;6.568;2022-07-24T11:01:37;27.20;97.60
53534;DHT22;39421;53.204;6.568;2022-07-24T11:09:19;26.80;97.40
53534;DHT22;39421;53.204;6.568;2022-07-24T11:12:06;26.70;97.90
53534;DHT22;39421;53.204;6.568;2022-07-24T11:17:36;26.70;97.80
53534;DHT22;39421;53.204;6.568;2022-07-24T11:20:14;26.80;97.90
53534;DHT22;39421;53.204;6.568;2022-07-24T11:22:47;26.90;97.80
53534;DHT22;39421;53.204;6.568;2022-07-24T11:25:20;27.10;97.50
53534;DHT22;39421;53.204;6.568;2022-07-24T11:30:18;27.50;97.10
53534;DHT22;39421;53.204;6.568;2022-07-24T11:32:44;27.70;97.20
53534;DHT22;39421;53.204;6.568;2022-07-24T11:35:10;27.70;96.90
53534;DHT22;39421;53.204;6.568;2022-07-24T11:37:39;27.80;96.50
53534;DHT22;39421;53.204;6.568;2022-07-24T11:40:06;27.70;96.00
53534;DHT22;39421;53.204;6.568;2022-07-24T11:42:34;27.70;96.30
53534;DHT22;39421;53.204;6.568;2022-07-24T11:45:00;27.70;96.50
53534;DHT22;39421;53.204;6.568;2022-07-24T11:47:27;27.80;96.00
53534;DHT22;39421;53.204;6.568;2022-07-24T11:49:58;27.80;95.70
53534;DHT22;39421;53.204;6.568;2022-07-24T11:52:31;27.80;95.70
53534;DHT22;39421;53.204;6.568;2022-07-24T11:55:03;28.00;95.70
53534;DHT22;39421;53.204;6.568;2022-07-24T11:57:32;28.10;95.60
53534;DHT22;39421;53.204;6.568;2022-07-24T11:59:58;28.20;95.60
53534;DHT22;39421;53.204;6.568;2022-07-24T12:02:30;28.30;95.50
53534;DHT22;39421;53.204;6.568;2022-07-24T12:04:58;28.30;95.10
53534;DHT22;39421;53.204;6.568;2022-07-24T12:07:26;28.30;95.00
53534;DHT22;39421;53.204;6.568;2022-07-24T12:09:57;28.40;94.40
53534;DHT22;39421;53.204;6.568;2022-07-24T12:12:31;28.40;94.20
53534;DHT22;39421;53.204;6.568;2022-07-24T12:15:08;28.40;94.20
53534;DHT22;39421;53.204;6.568;2022-07-24T12:17:35;28.50;94.30
53534;DHT22;39421;53.204;6.568;2022-07-24T12:20:27;28.50;94.00
53534;DHT22;39421;53.204;6.568;2022-07-24T12:22:54;28.40;94.40
53534;DHT22;39421;53.204;6.568;2022-07-24T12:25:21;28.40;94.70
53534;DHT22;39421;53.204;6.568;2022-07-24T12:27:49;28.60;94.80
53534;DHT22;39421;53.204;6.568;2022-07-24T12:30:19;28.60;94.50
53534;DHT22;39421;53.204;6.568;2022-07-24T12:32:58;28.60;94.20
53534;DHT22;39421;53.204;6.568;2022-07-24T12:35:29;28.40;94.30
53534;DHT22;39421;53.204;6.568;2022-07-24T12:37:56;28.40;94.20
53534;DHT22;39421;53.204;6.568;2022-07-24T12:40:42;28.50;93.60
53534;DHT22;39421;53.204;6.568;2022-07-24T12:43:10;28.50;93.60
53534;DHT22;39421;53.204;6.568;2022-07-24T12:45:37;28.60;93.40
53534;DHT22;39421;53.204;6.568;2022-07-24T12:48:21;28.70;93.40
53534;DHT22;39421;53.204;6.568;2022-07-24T12:51:09;28.50;93.40
53534;DHT22;39421;53.204;6.568;2022-07-24T12:53:38;28.30;93.50
53534;DHT22;39421;53.204;6.568;2022-07-24T12:56:11;28.30;94.20
53534;DHT22;39421;53.204;6.568;2022-07-24T12:58:56;28.40;94.00
53534;DHT22;39421;53.204;6.568;2022-07-24T13:01:24;28.50;93.40
53534;DHT22;39421;53.204;6.568;2022-07-24T13:03:53;28.50;93.30
53534;DHT22;39421;53.204;6.568;2022-07-24T13:08:58;28.70;93.40
53534;DHT22;39421;53.204;6.568;2022-07-24T13:11:24;28.80;93.50
53534;DHT22;39421;53.204;6.568;2022-07-24T13:13:49;28.80;93.60
53534;DHT22;39421;53.204;6.568;2022-07-24T13:16:15;28.90;93.40
53534;DHT22;39421;53.204;6.568;2022-07-24T13:18:41;28.90;93.30
53534;DHT22;39421;53.204;6.568;2022-07-24T13:21:06;28.90;93.30
53534;DHT22;39421;53.204;6.568;2022-07-24T13:23:32;28.90;93.50
53534;DHT22;39421;53.204;6.568;2022-07-24T13:25:58;29.00;93.20
53534;DHT22;39421;53.204;6.568;2022-07-24T13:28:23;29.00;93.10
53534;DHT22;39421;53.204;6.568;2022-07-24T13:30:49;29.00;92.90
53534;DHT22;39421;53.204;6.568;2022-07-24T13:33:15;29.00;92.60
53534;DHT22;39421;53.204;6.568;2022-07-24T13:35:40;29.00;92.20
53534;DHT22;39421;53.204;6.568;2022-07-24T13:38:06;28.90;92.30
53534;DHT22;39421;53.204;6.568;2022-07-24T13:40:32;28.70;92.60
53534;DHT22;39421;53.204;6.568;2022-07-24T13:42:57;28.50;92.70
53534;DHT22;39421;53.204;6.568;2022-07-24T13:45:23;28.40;93.20
53534;DHT22;39421;53.204;6.568;2022-07-24T13:47:49;28.30;92.90
53534;DHT22;39421;53.204;6.568;2022-07-24T13:50:14;28.30;93.40
53534;DHT22;39421;53.204;6.568;2022-07-24T13:52:40;28.30;93.30
53534;DHT22;39421;53.204;6.568;2022-07-24T13:55:06;28.40;92.80
53534;DHT22;39421;53.204;6.568;2022-07-24T13:57:32;28.50;92.90
53534;DHT22;39421;53.204;6.568;2022-07-24T13:59:59;28.50;92.50
53534;DHT22;39421;53.204;6.568;2022-07-24T14:02:24;28.60;93.00
53534;DHT22;39421;53.204;6.568;2022-07-24T14:04:50;28.60;92.50
53534;DHT22;39421;53.204;6.568;2022-07-24T14:07:16;28.70;92.70
53534;DHT22;39421;53.204;6.568;2022-07-24T14:09:41;28.70;92.50
53534;DHT22;39421;53.204;6.568;2022-07-24T14:12:07;28.50;92.50
53534;DHT22;39421;53.204;6.568;2022-07-24T14:14:33;28.40;92.60
53534;DHT22;39421;53.204;6.568;2022-07-24T14:16:59;28.30;92.70
53534;DHT22;39421;53.204;6.568;2022-07-24T14:19:25;28.20;92.90
53534;DHT22;39421;53.204;6.568;2022-07-24T14:21:51;28.20;93.00
53534;DHT22;39421;53.204;6.568;2022-07-24T14:24:18;28.40;92.70
53534;DHT22;39421;53.204;6.568;2022-07-24T14:26:45;28.50;91.80
53534;DHT22;39421;53.204;6.568;2022-07-24T14:29:11;28.40;91.50
53534;DHT22;39421;53.204;6.568;2022-07-24T14:31:37;28.30;91.70
53534;DHT22;39421;53.204;6.568;2022-07-24T14:34:03;28.40;91.80
53534;DHT22;39421;53.204;6.568;2022-07-24T14:36:29;28.40;91.90
53534;DHT22;39421;53.204;6.568;2022-07-24T14:38:55;28.50;92.00
53534;DHT22;39421;53.204;6.568;2022-07-24T14:41:20;28.50;91.90
53534;DHT22;39421;53.204;6.568;2022-07-24T14:43:46;28.60;91.80
53534;DHT22;39421;53.204;6.568;2022-07-24T14:46:11;28.70;92.10
53534;DHT22;39421;53.204;6.568;2022-07-24T14:48:37;28.60;92.10
53534;DHT22;39421;53.204;6.568;2022-07-24T14:51:03;28.60;92.10
53534;DHT22;39421;53.204;6.568;2022-07-24T14:53:28;28.70;92.20
53534;DHT22;39421;53.204;6.568;2022-07-24T14:55:54;28.70;92.00
53534;DHT22;39421;53.204;6.568;2022-07-24T14:58:20;28.70;92.30
53534;DHT22;39421;53.204;6.568;2022-07-24T15:00:45;28.60;92.30
53534;DHT22;39421;53.204;6.568;2022-07-24T15:03:14;28.60;92.60
53534;DHT22;39421;53.204;6.568;2022-07-24T15:05:40;28.80;92.60
53534;DHT22;39421;53.204;6.568;2022-07-24T15:08:05;28.90;92.70
53534;DHT22;39421;53.204;6.568;2022-07-24T15:10:31;28.90;92.70
53534;DHT22;39421;53.204;6.568;2022-07-24T15:12:57;28.90;92.60
53534;DHT22;39421;53.204;6.568;2022-07-24T15:15:22;28.90;92.60
53534;DHT22;39421;53.204;6.568;2022-07-24T15:17:48;29.00;92.70
53534;DHT22;39421;53.204;6.568;2022-07-24T15:20:14;29.00;92.70
53534;DHT22;39421;53.204;6.568;2022-07-24T15:22:39;29.00;92.70
53534;DHT22;39421;53.204;6.568;2022-07-24T15:25:05;29.10;92.70
53534;DHT22;39421;53.204;6.568;2022-07-24T15:27:31;29.20;92.70
53534;DHT22;39421;53.204;6.568;2022-07-24T15:29:57;29.20;92.60
53534;DHT22;39421;53.204;6.568;2022-07-24T15:32:23;29.20;92.60
53534;DHT22;39421;53.204;6.568;2022-07-24T15:34:48;29.10;92.70
53534;DHT22;39421;53.204;6.568;2022-07-24T15:37:14;29.10;92.70
53534;DHT22;39421;53.204;6.568;2022-07-24T15:39:40;29.00;92.70
53534;DHT22;39421;53.204;6.568;2022-07-24T15:42:06;28.90;92.80
53534;DHT22;39421;53.204;6.568;2022-07-24T15:44:31;28.90;93.00
53534;DHT22;39421;53.204;6.568;2022-07-24T15:46:57;28.90;93.00
53534;DHT22;39421;53.204;6.568;2022-07-24T15:49:23;28.90;93.20
53534;DHT22;39421;53.204;6.568;2022-07-24T15:51:49;29.00;93.30
53534;DHT22;39421;53.204;6.568;2022-07-24T15:54:14;29.00;93.20
53534;DHT22;39421;53.204;6.568;2022-07-24T15:56:40;28.90;93.20
53534;DHT22;39421;53.204;6.568;2022-07-24T15:59:06;28.90;93.00
53534;DHT22;39421;53.204;6.568;2022-07-24T16:01:32;28.90;93.30
53534;DHT22;39421;53.204;6.568;2022-07-24T16:03:58;28.90;93.30
53534;DHT22;39421;53.204;6.568;2022-07-24T16:06:24;28.90;93.40
53534;DHT22;39421;53.204;6.568;2022-07-24T16:08:49;28.80;93.40
53534;DHT22;39421;53.204;6.568;2022-07-24T16:11:15;28.80;93.30
53534;DHT22;39421;53.204;6.568;2022-07-24T16:13:41;28.80;93.50